Terminal Aerodrome Forecast
Issued by NWS Northern Indiana

Home | Current Version | Previous Version | Text Only | Print | Product List | Glossary On
Versions: 1 2 3 4 5 6 7 8 9 10 11 12 13 14 15 16 17 18 19 20 21 22
000
FTUS43 KIWX 112320
TAFFWA
TAF
KFWA 112320Z 1200/1224 12007KT P6SM BKN120
     FM120400 30011KT P6SM OVC015
     FM120800 30018G26KT 3SM -SHSN OVC025
      TEMPO 1211/1215 3/4SM -SN BLSN OVC020
     FM121500 30017G24KT 3SM -SHSN OVC025=

USA.gov is the U.S. government's official web portal to all federal, state and local government web resources and services.